METAR AND TAF INFORMATION
METAR FOR LTCG
ADDS - METARS form results

(0313 UTC 21 May 2019)
Data provider http://aviationweather.gov/metar/data/
 
METAR text: LTCG 210250Z 00000KT CAVOK 18/13 Q1015 NOSIG RMK RWY29 00000KT
Conditions at: LTCG (TRABZON , TR) observed 0250 UTC 21 May 2019
Temperature: 18.0°C (64°F)
Dewpoint: 13.0°C (55°F) [RH = 73%]
Pressure (altimeter): 29.97 inches Hg (1015.0 mb)
Winds: calm
Visibility: 6 or more miles (10+ km)
Ceiling: ceiling and visibility are OK
Clouds: unknown
Weather: no significant weather observed at this time

METAR text: LTCG 210220Z VRB02KT CAVOK 16/14 Q1015 NOSIG RMK RWY29 00000KT
Conditions at: LTCG (TRABZON , TR) observed 0220 UTC 21 May 2019
Temperature: 16.0°C (61°F)
Dewpoint: 14.0°C (57°F) [RH = 88%]
Pressure (altimeter): 29.97 inches Hg (1015.0 mb)
Winds: variable direction winds at 2 MPH (2 knots; 1.0 m/s)
Visibility: 6 or more miles (10+ km)
Ceiling: ceiling and visibility are OK
Clouds: unknown
Weather: no significant weather observed at this time

Forecast for: LTCG (TRABZON , TR)
Text: TAF LTCG 202240Z 2100/2124 VRB02KT CAVOK
Forecast period: 0000 UTC 21 May 2019 to 0000 UTC 22 May 2019
Forecast type: FROM: standard forecast or significant change
Winds: variable direction winds at 2 MPH (2 knots; 1.0 m/s)
Visibility: 6 or more miles 10+ km)
Ceiling: unknown
Clouds: missing
Weather: NSW  (no significant weather)
Text: PROB30 2103/2107 2500 BCFG BKN004
Forecast period: 0300 to 0700 UTC 21 May 2019
Forecast type: PROBABLE: 30 percent likelihood of the following during this time
Visibility: 1.55 miles (2.49 km)
Ceiling: 400 feet AGL
Clouds: broken clouds at 400 feet AGL
Weather: BCFG  (patches of fog)

 AIRPORT MAP

 RUNWAY INFORMATION
Runway 11 Runway length 8661 ft Runway width 148 ft
Runway elevation 104 ft Runway displaced threshold 0 ft Runway heading 112
Runway 29 Runway length 8661 ft Runway width 148 ft
Runway elevation 95 ft Runway displaced threshold 0 ft Runway heading 292

 AIRPORT FREQUENCIES
Type APP Name APP Frequency 120.1 MHZ
Type GND Name GND Frequency 121.9 MHZ
Type TWR Name TWR Frequency 120.1 MHZ

 AIRPORT NEAR NAVIGATION AIDS
Type NDB Name Trabzon Frequency 392 KHZ
Type VOR-DME Name Trabzon Frequency 114900 KHZ
Type NDB Name Trabzon Frequency 371 KHZ



>